Terminal Aerodrome Forecast
Issued by NWS Melbourne, FL

Current Version | Previous Version | Text Only | Print | Product List | Glossary On
Versions: 1 2 3 4 5 6 7 8 9 10 11 12 13 14 15 16 17 18
000
FTUS42 KMLB 271137
TAFMLB
TAF
KMLB 271137Z 2712/2812 28004KT P6SM SKC
     FM271400 VRB04KT P6SM FEW030
     FM271700 10010KT P6SM SKC
     FM280300 18004KT P6SM SKC=

USA.gov is the U.S. government's official web portal to all federal, state and local government web resources and services.